Time;durP1;ratioP1;P1;durP2;ratioP2;P2;SDS_P1;SDS_P2;PMS_P1;PMS_P2;Temp;Humidity;BMP_temperature;BMP_pressure;BME280_temperature;BME280_humidity;BME280_pressure;Samples;Min_cycle;Max_cycle;Signal;HPM_P1;HPM_P2
2022/05/24 00:00:31;;;;;;;19.80;14.98;;;17.00;99.90;;;;;;4993541;28;20490;-64
2022/05/24 00:02:58;;;;;;;19.77;14.95;;;17.00;99.90;;;;;;4993563;28;20023;-64
2022/05/24 00:05:27;;;;;;;16.52;13.38;;;17.00;99.90;;;;;;4993700;28;20117;-64
2022/05/24 00:07:54;;;;;;;18.33;13.05;;;17.00;99.90;;;;;;4993246;28;20490;-65
2022/05/24 00:10:25;;;;;;;19.27;12.82;;;17.00;99.90;;;;;;4993282;28;20054;-65
2022/05/24 00:12:51;;;;;;;17.70;12.52;;;17.10;99.90;;;;;;4993430;28;20062;-65
2022/05/24 00:15:20;;;;;;;16.10;12.30;;;17.00;99.90;;;;;;4993261;28;20038;-65
2022/05/24 00:17:48;;;;;;;16.13;11.90;;;17.10;99.90;;;;;;4993122;28;20498;-64
2022/05/24 00:20:15;;;;;;;17.83;13.02;;;17.10;99.90;;;;;;4993302;28;20065;-64
2022/05/24 00:22:41;;;;;;;17.65;13.10;;;17.10;99.90;;;;;;4993676;28;20418;-64
2022/05/24 00:25:08;;;;;;;19.98;13.02;;;17.00;99.90;;;;;;4993305;28;20105;-64
2022/05/24 00:27:34;;;;;;;18.83;13.70;;;17.00;99.90;;;;;;4992821;28;20085;-64
2022/05/24 00:30:00;;;;;;;19.05;14.10;;;17.00;99.90;;;;;;4992827;28;20034;-64
2022/05/24 00:32:26;;;;;;;20.65;13.48;;;17.00;99.90;;;;;;4992996;28;20492;-64
2022/05/24 00:34:52;;;;;;;17.95;14.30;;;17.00;99.90;;;;;;4992958;28;20030;-64
2022/05/24 00:37:22;;;;;;;19.63;14.38;;;17.00;99.90;;;;;;4992886;28;20033;-65
2022/05/24 00:39:48;;;;;;;18.70;14.80;;;17.00;99.90;;;;;;4992818;28;20034;-64
2022/05/24 00:42:21;;;;;;;22.25;15.90;;;17.00;99.90;;;;;;4992855;28;20058;-64
2022/05/24 00:45:02;;;;;;;23.75;16.13;;;17.00;99.90;;;;;;4992850;28;20030;-64
2022/05/24 00:47:37;;;;;;;21.45;15.25;;;16.90;99.90;;;;;;4992460;28;20034;-64
2022/05/24 00:50:27;;;;;;;19.80;15.18;;;16.90;99.90;;;;;;4992615;28;20031;-64
2022/05/24 00:52:56;;;;;;;19.15;14.10;;;16.90;99.90;;;;;;4992552;28;20117;-64
2022/05/24 00:55:24;;;;;;;21.42;15.68;;;16.90;99.90;;;;;;4990763;28;20030;-64
2022/05/24 00:58:07;;;;;;;19.93;13.83;;;16.90;99.90;;;;;;4990959;28;20022;-64
2022/05/24 01:00:37;;;;;;;20.65;14.75;;;16.90;99.90;;;;;;4991480;28;20058;-64
2022/05/24 01:03:03;;;;;;;19.60;13.77;;;16.90;99.90;;;;;;4991265;28;20368;-65
2022/05/24 02:22:16;;;;;;;18.80;12.20;;;16.70;99.90;;;;;;4990867;28;20049;-64
2022/05/24 02:24:42;;;;;;;18.13;12.65;;;16.60;99.90;;;;;;4994370;28;20113;-64
2022/05/24 02:27:08;;;;;;;16.55;12.43;;;16.60;99.90;;;;;;4995041;28;20110;-64
2022/05/24 02:29:34;;;;;;;16.75;11.50;;;16.60;99.90;;;;;;4995004;28;20470;-64
2022/05/24 02:32:00;;;;;;;15.73;10.98;;;16.60;99.90;;;;;;4995186;28;20038;-63
2022/05/24 02:34:26;;;;;;;14.57;9.98;;;16.60;99.90;;;;;;4995132;28;20053;-65
2022/05/24 02:36:53;;;;;;;19.63;9.85;;;16.60;99.90;;;;;;4994578;28;20026;-64
2022/05/24 02:39:19;;;;;;;14.85;9.77;;;16.60;99.90;;;;;;5009807;28;20483;-64
2022/05/24 02:41:45;;;;;;;15.57;8.93;;;16.50;99.90;;;;;;4995329;28;20109;-67
2022/05/24 02:44:15;;;;;;;13.40;8.63;;;16.50;99.90;;;;;;4995026;28;20030;-67
2022/05/24 02:46:44;;;;;;;11.95;7.45;;;16.40;99.90;;;;;;4993327;28;20037;-65
2022/05/24 02:49:10;;;;;;;13.45;8.35;;;16.40;99.90;;;;;;4994817;28;20026;-66
2022/05/24 02:51:37;;;;;;;10.60;7.57;;;16.40;99.90;;;;;;4994984;28;20061;-64
2022/05/24 02:54:05;;;;;;;13.65;6.85;;;16.40;99.90;;;;;;4994803;28;20030;-64
2022/05/24 02:56:31;;;;;;;12.40;7.40;;;16.40;99.90;;;;;;4994551;28;20038;-64
2022/05/24 02:58:59;;;;;;;16.00;7.70;;;16.30;99.90;;;;;;4994565;28;20042;-64
2022/05/24 03:01:28;;;;;;;11.27;6.60;;;16.30;99.90;;;;;;4994682;28;20274;-64
2022/05/24 03:03:55;;;;;;;10.13;5.95;;;16.30;99.90;;;;;;4994656;28;20372;-64
2022/05/24 03:06:23;;;;;;;11.27;5.88;;;16.30;99.90;;;;;;4994175;28;20054;-64
2022/05/24 03:14:21;;;;;;;13.35;6.03;;;16.20;99.90;;;;;;4994292;28;20133;-66
2022/05/24 03:16:52;;;;;;;12.40;6.05;;;16.20;99.90;;;;;;4994142;28;20033;-66
2022/05/24 03:19:21;;;;;;;11.52;5.50;;;16.10;99.90;;;;;;4994158;28;20042;-66
2022/05/24 03:21:49;;;;;;;12.23;5.72;;;16.10;99.90;;;;;;4994354;28;20027;-66
2022/05/24 03:24:15;;;;;;;10.90;5.50;;;16.10;99.90;;;;;;4994312;28;20022;-66
2022/05/24 03:26:41;;;;;;;12.50;5.38;;;16.10;99.90;;;;;;4993919;28;20028;-66
2022/05/24 03:29:07;;;;;;;12.50;5.68;;;16.10;99.90;;;;;;4993937;28;20080;-65
2022/05/24 03:31:33;;;;;;;12.07;5.43;;;16.10;99.90;;;;;;4994143;28;20026;-66
2022/05/24 03:34:00;;;;;;;13.20;5.50;;;16.00;99.90;;;;;;4994061;28;20475;-65
2022/05/24 03:36:28;;;;;;;10.73;5.07;;;16.00;99.90;;;;;;4992861;28;20046;-65
2022/05/24 03:38:54;;;;;;;10.27;5.45;;;16.00;99.90;;;;;;4993805;28;20042;-65
2022/05/24 03:41:20;;;;;;;13.88;5.75;;;16.00;99.90;;;;;;4993958;28;20081;-66
2022/05/24 03:43:46;;;;;;;10.48;5.88;;;16.00;99.90;;;;;;4994056;28;20030;-66
2022/05/24 03:46:12;;;;;;;11.48;5.70;;;16.00;99.90;;;;;;4993447;28;20045;-66
2022/05/24 03:48:39;;;;;;;12.05;5.55;;;15.90;99.90;;;;;;4993681;28;20125;-65
2022/05/24 03:51:05;;;;;;;10.05;4.78;;;16.00;99.90;;;;;;4993660;28;20034;-66
2022/05/24 03:53:31;;;;;;;10.85;4.80;;;16.00;99.90;;;;;;4993643;28;20034;-67
2022/05/24 03:55:57;;;;;;;14.18;5.10;;;16.00;99.90;;;;;;4993452;28;20062;-66
2022/05/24 03:58:24;;;;;;;11.95;5.25;;;16.00;99.90;;;;;;4992201;28;20050;-66
2022/05/24 04:00:51;;;;;;;11.45;5.38;;;15.90;99.90;;;;;;4993373;28;20537;-65
2022/05/24 04:03:17;;;;;;;9.68;5.38;;;15.90;99.90;;;;;;4993802;28;20030;-66
2022/05/24 04:05:46;;;;;;;8.40;4.32;;;15.90;99.90;;;;;;4993415;28;20065;-65
2022/05/24 04:08:16;;;;;;;8.68;4.43;;;15.90;99.90;;;;;;4993450;28;20109;-65
2022/05/24 04:10:42;;;;;;;15.13;4.82;;;15.90;99.90;;;;;;4993221;28;20065;-65
2022/05/24 04:13:08;;;;;;;10.00;4.50;;;16.00;99.90;;;;;;4993399;28;20652;-66
2022/05/24 04:15:34;;;;;;;11.85;4.53;;;16.00;99.90;;;;;;4993553;28;20045;-65
2022/05/24 04:18:00;;;;;;;7.88;4.60;;;15.90;99.90;;;;;;4993153;28;20034;-66
2022/05/24 04:20:28;;;;;;;9.88;4.80;;;15.90;99.90;;;;;;4992913;28;20066;-67
2022/05/24 04:22:56;;;;;;;12.00;4.70;;;15.90;99.90;;;;;;4993277;28;20041;-66
2022/05/24 04:25:23;;;;;;;10.07;4.18;;;15.90;99.90;;;;;;4993091;28;20113;-67
2022/05/24 04:27:49;;;;;;;12.35;4.68;;;16.00;99.90;;;;;;4992775;28;20034;-68
2022/05/24 04:30:18;;;;;;;9.98;4.70;;;16.00;99.90;;;;;;4992971;28;20034;-68
2022/05/24 04:32:44;;;;;;;12.13;5.13;;;16.00;99.90;;;;;;4992955;28;20040;-67
2022/05/24 04:35:11;;;;;;;8.85;4.60;;;16.00;99.90;;;;;;4992977;28;20117;-67
2022/05/24 04:37:37;;;;;;;9.02;4.43;;;16.00;99.90;;;;;;4992647;28;20026;-72
2022/05/24 04:40:04;;;;;;;9.93;4.55;;;16.00;99.90;;;;;;4992624;28;20030;-70
2022/05/24 04:42:30;;;;;;;8.73;4.30;;;16.20;99.90;;;;;;4992830;28;20105;-70
2022/05/24 04:44:59;;;;;;;10.48;4.07;;;16.20;99.90;;;;;;4992825;28;20058;-70
2022/05/24 04:47:26;;;;;;;;;;;16.60;99.90;;;;;;4992820;28;20030;-69
2022/05/24 04:49:55;;;;;;;11.27;4.93;;;16.70;99.90;;;;;;4992433;28;19949;-72
2022/05/24 04:52:26;;;;;;;13.15;5.22;;;16.70;99.90;;;;;;4992852;28;20380;-69
2022/05/24 04:54:52;;;;;;;8.02;3.60;;;16.60;99.90;;;;;;4992581;28;20038;-69
2022/05/24 04:57:20;;;;;;;10.00;4.20;;;16.80;99.90;;;;;;4992313;28;20026;-73
2022/05/24 04:59:46;;;;;;;10.52;4.32;;;16.90;99.90;;;;;;4992308;28;20053;-70
2022/05/24 05:02:13;;;;;;;11.82;4.00;;;16.90;99.90;;;;;;4992493;28;20395;-70
2022/05/24 05:04:39;;;;;;;11.32;3.80;;;16.90;99.90;;;;;;4992421;28;20035;-73
2022/05/24 05:07:06;;;;;;;9.73;3.65;;;17.00;99.90;;;;;;4992448;28;20037;-71
2022/05/24 05:09:35;;;;;;;9.35;3.80;;;17.00;99.90;;;;;;4992224;28;20033;-70
2022/05/24 05:12:11;;;;;;;6.47;3.00;;;16.90;99.90;;;;;;4992353;28;20026;-70
2022/05/24 05:14:39;;;;;;;9.80;4.05;;;17.10;99.90;;;;;;4990924;28;20137;-69
2022/05/24 05:17:10;;;;;;;6.03;2.85;;;17.20;99.90;;;;;;4991950;28;20506;-70
2022/05/24 05:19:37;;;;;;;9.13;3.00;;;17.10;99.90;;;;;;4991877;28;20484;-69
2022/05/24 05:22:03;;;;;;;9.93;3.30;;;17.10;99.90;;;;;;4990942;28;20030;-69
2022/05/24 05:24:29;;;;;;;8.05;3.03;;;17.00;99.90;;;;;;4992058;28;20057;-69
2022/05/24 05:26:55;;;;;;;6.40;2.72;;;16.90;99.90;;;;;;4991919;28;20455;-66
2022/05/24 05:31:16;;;;;;;7.00;2.33;;;17.00;99.90;;;;;;4991850;28;20045;-66
2022/05/24 05:32:08;;;;;;;7.28;2.17;;;16.80;99.90;;;;;;4992044;28;20097;-66
2022/05/24 05:34:34;;;;;;;7.45;2.17;;;16.60;99.90;;;;;;4992135;28;20093;-66
2022/05/24 05:37:05;;;;;;;9.82;2.58;;;16.40;99.90;;;;;;4990375;28;20435;-66
2022/05/24 05:39:31;;;;;;;6.18;2.53;;;16.20;99.90;;;;;;4991821;28;20034;-66
2022/05/24 05:41:57;;;;;;;8.60;3.55;;;16.10;99.90;;;;;;4991845;28;20203;-69
2022/05/24 05:44:23;;;;;;;11.00;4.13;;;16.00;99.90;;;;;;4991676;28;20483;-69
2022/05/24 05:46:51;;;;;;;10.20;3.00;;;16.00;99.90;;;;;;4991373;28;20034;-67
2022/05/24 05:49:17;;;;;;;7.97;2.80;;;16.00;99.90;;;;;;4991665;28;20443;-69
2022/05/24 05:51:43;;;;;;;8.95;2.53;;;16.00;99.90;;;;;;4991883;28;20026;-68
2022/05/24 05:54:10;;;;;;;8.55;2.33;;;16.00;99.90;;;;;;4991750;28;20049;-68
2022/05/24 05:56:36;;;;;;;5.70;2.17;;;16.00;99.90;;;;;;4989798;28;20035;-69
2022/05/24 05:59:02;;;;;;;6.28;2.20;;;16.00;99.90;;;;;;4990894;28;20030;-67
2022/05/24 06:01:30;;;;;;;8.63;2.42;;;16.00;99.90;;;;;;4991498;28;20026;-66
2022/05/24 06:03:59;;;;;;;10.52;3.22;;;16.00;99.90;;;;;;4991589;28;20057;-65
2022/05/24 06:06:28;;;;;;;10.55;3.95;;;15.90;99.90;;;;;;4991462;28;20054;-65
2022/05/24 06:08:55;;;;;;;8.80;4.05;;;15.80;99.90;;;;;;4991376;28;20077;-66
2022/05/24 06:11:23;;;;;;;7.35;3.25;;;15.80;99.90;;;;;;4991531;28;20031;-67
2022/05/24 06:13:50;;;;;;;6.50;3.13;;;15.70;99.90;;;;;;4991473;28;20068;-66
2022/05/24 06:16:16;;;;;;;7.22;2.33;;;15.70;99.90;;;;;;4989247;28;20471;-66
2022/05/24 06:18:42;;;;;;;10.70;3.40;;;15.60;99.90;;;;;;4990674;28;20026;-65
2022/05/24 06:21:08;;;;;;;9.07;2.67;;;15.60;99.90;;;;;;4991089;28;20022;-65
2022/05/24 06:23:36;;;;;;;9.05;2.38;;;15.60;99.90;;;;;;4991238;28;20054;-65
2022/05/24 06:26:02;;;;;;;7.45;2.53;;;15.60;99.90;;;;;;4990674;28;20042;-65
2022/05/24 06:28:29;;;;;;;7.30;2.60;;;15.60;99.90;;;;;;4991316;28;20038;-66
2022/05/24 06:30:55;;;;;;;8.65;2.38;;;15.60;99.90;;;;;;4990977;28;20031;-66
2022/05/24 06:33:24;;;;;;;5.95;2.35;;;15.50;99.90;;;;;;4990872;28;20089;-70
2022/05/24 06:35:50;;;;;;;;;;;15.50;99.90;;;;;;4989180;28;20491;-69
2022/05/24 06:38:16;;;;;;;9.98;2.40;;;15.50;99.90;;;;;;4991010;28;19964;-67
2022/05/24 06:40:43;;;;;;;8.50;2.70;;;15.70;99.90;;;;;;4990907;28;20026;-65
2022/05/24 06:43:10;;;;;;;7.05;2.28;;;15.70;99.90;;;;;;4991256;28;20106;-66
2022/05/24 06:45:36;;;;;;;10.90;2.28;;;15.60;99.90;;;;;;4990867;28;20482;-65
2022/05/24 06:48:02;;;;;;;6.65;2.25;;;15.50;99.90;;;;;;4990781;28;20038;-65
2022/05/24 06:50:31;;;;;;;5.85;2.22;;;15.50;99.90;;;;;;4990672;28;20038;-66
2022/05/24 06:52:57;;;;;;;7.73;2.50;;;15.50;99.90;;;;;;4990911;28;20030;-65
2022/05/24 06:55:26;;;;;;;8.90;2.80;;;15.40;99.90;;;;;;4990928;28;20288;-65
2022/05/24 06:57:52;;;;;;;6.72;2.40;;;15.40;99.90;;;;;;4989131;28;20026;-68
2022/05/24 07:03:07;;;;;;;6.18;2.05;;;15.50;99.90;;;;;;4991155;28;20439;-66
2022/05/24 07:05:34;;;;;;;4.50;1.80;;;15.40;99.90;;;;;;4990895;28;20038;-66
2022/05/24 07:08:01;;;;;;;7.40;2.42;;;15.30;99.90;;;;;;4990986;28;20030;-67
2022/05/24 07:10:29;;;;;;;6.80;2.17;;;15.50;99.90;;;;;;4991768;28;20467;-66
2022/05/24 07:13:15;;;;;;;8.48;1.80;;;15.40;99.90;;;;;;4994581;28;20030;-67
2022/05/24 07:15:42;;;;;;;9.50;2.60;;;15.50;99.90;;;;;;4994310;28;20037;-66
2022/05/24 07:18:08;;;;;;;6.72;2.33;;;15.60;99.90;;;;;;4993948;28;20435;-67
2022/05/24 07:20:36;;;;;;;6.22;2.00;;;15.60;99.90;;;;;;4993711;28;20042;-66
2022/05/24 07:23:17;;;;;;;7.88;2.13;;;15.70;99.90;;;;;;4993884;28;20521;-66
2022/05/24 07:25:46;;;;;;;6.80;2.00;;;15.70;99.90;;;;;;4994078;28;20037;-66
2022/05/24 07:28:16;;;;;;;5.95;2.20;;;15.70;99.90;;;;;;4993913;28;20069;-66
2022/05/24 07:30:42;;;;;;;6.97;2.30;;;15.70;99.90;;;;;;4993597;28;20442;-66
2022/05/24 07:33:09;;;;;;;9.00;2.17;;;15.60;99.90;;;;;;4994027;28;20488;-68
2022/05/24 07:35:35;;;;;;;7.38;3.00;;;15.60;99.90;;;;;;4993734;28;20514;-66
2022/05/24 07:38:01;;;;;;;7.78;2.58;;;15.60;99.90;;;;;;4993676;28;20062;-67
2022/05/24 07:46:03;;;;;;;8.90;2.55;;;15.60;99.90;;;;;;4993225;28;20073;-66
2022/05/24 07:48:29;;;;;;;6.90;2.30;;;15.70;99.90;;;;;;4993383;28;20030;-66
2022/05/24 07:50:55;;;;;;;7.38;2.45;;;15.70;99.90;;;;;;4992239;28;20030;-69
2022/05/24 07:53:21;;;;;;;7.95;2.40;;;15.70;99.90;;;;;;4992306;28;20027;-66
2022/05/24 07:55:47;;;;;;;7.40;2.45;;;15.70;99.90;;;;;;4992210;28;20042;-66
2022/05/24 07:58:15;;;;;;;6.35;2.30;;;15.70;99.90;;;;;;4992454;28;20038;-67
2022/05/24 08:00:41;;;;;;;7.70;2.47;;;15.80;99.90;;;;;;4992306;28;20035;-66
2022/05/24 08:03:07;;;;;;;6.95;2.63;;;15.80;99.90;;;;;;4991818;28;20129;-67
2022/05/24 08:05:35;;;;;;;7.32;2.50;;;15.90;99.90;;;;;;4992496;28;20030;-66
2022/05/24 08:08:01;;;;;;;6.88;2.15;;;15.90;99.90;;;;;;4993396;28;20435;-66
2022/05/24 08:10:29;;;;;;;5.90;1.85;;;15.90;99.90;;;;;;4993596;28;20030;-66
2022/05/24 08:12:56;;;;;;;6.95;2.63;;;16.00;99.90;;;;;;4993547;28;20034;-66
2022/05/24 08:15:23;;;;;;;6.18;1.98;;;16.00;99.90;;;;;;4993361;28;20062;-66
2022/05/24 08:17:50;;;;;;;6.43;2.85;;;16.00;99.90;;;;;;4993331;28;20543;-66
2022/05/24 08:20:17;;;;;;;5.45;1.83;;;16.10;99.90;;;;;;4993292;28;20480;-66
2022/05/24 08:22:44;;;;;;;6.85;1.90;;;16.10;99.90;;;;;;4992963;28;20038;-66
2022/05/24 08:25:11;;;;;;;5.97;1.75;;;16.10;99.90;;;;;;4993830;28;20372;-66
2022/05/24 08:27:38;;;;;;;6.90;2.08;;;16.10;99.90;;;;;;4993173;28;20057;-66
2022/05/24 08:30:06;;;;;;;5.75;1.77;;;16.20;99.90;;;;;;4993384;28;20041;-66
2022/05/24 08:32:32;;;;;;;4.10;1.33;;;16.30;99.90;;;;;;4993164;28;20026;-67
2022/05/24 08:34:58;;;;;;;6.72;1.90;;;16.30;99.90;;;;;;4993086;28;20281;-66
2022/05/24 08:37:24;;;;;;;4.90;2.00;;;16.30;99.90;;;;;;4992614;28;20033;-66
2022/05/24 08:39:50;;;;;;;5.45;2.10;;;16.30;99.90;;;;;;4992847;28;20029;-66
2022/05/24 08:42:55;;;;;;;6.35;2.50;;;16.20;99.90;;;;;;4993037;28;20030;-66
2022/05/24 08:48:40;;;;;;;5.32;2.10;;;16.10;99.90;;;;;;4992970;28;20056;-66
2022/05/24 08:51:32;;;;;;;6.60;1.60;;;16.10;99.90;;;;;;4992484;28;20077;-66
2022/05/24 08:54:13;;;;;;;6.53;1.77;;;16.00;99.90;;;;;;4992958;28;20034;-66
2022/05/24 08:56:50;;;;;;;5.60;1.63;;;16.10;99.90;;;;;;4992644;28;20514;-66
2022/05/24 08:59:23;;;;;;;9.02;2.25;;;16.10;99.90;;;;;;4992720;28;20037;-66
2022/05/24 09:01:50;;;;;;;4.97;1.70;;;16.20;99.90;;;;;;4991436;28;20030;-66
2022/05/24 09:04:16;;;;;;;8.02;1.80;;;16.20;99.90;;;;;;4992610;28;20019;-66
2022/05/24 09:06:51;;;;;;;5.47;2.00;;;16.20;99.90;;;;;;4992486;28;20022;-66
2022/05/24 09:09:48;;;;;;;6.15;1.70;;;16.20;99.90;;;;;;4992525;28;20026;-66
2022/05/24 09:12:23;;;;;;;6.35;2.03;;;16.20;99.90;;;;;;4992480;28;20026;-66
2022/05/24 09:14:49;;;;;;;5.80;2.10;;;16.20;99.90;;;;;;4992161;28;20034;-66
2022/05/24 09:17:51;;;;;;;7.07;2.05;;;16.10;99.90;;;;;;4992524;28;20038;-66
2022/05/24 09:20:40;;;;;;;8.27;2.40;;;16.10;99.90;;;;;;4992242;28;20339;-66
2022/05/24 09:23:18;;;;;;;6.18;2.05;;;16.20;99.90;;;;;;4992312;28;20089;-68
2022/05/24 09:26:12;;;;;;;5.65;1.80;;;16.30;99.90;;;;;;4992293;28;20494;-66
2022/05/24 09:28:48;;;;;;;5.38;1.80;;;16.30;99.90;;;;;;4992208;28;20112;-67
2022/05/24 09:31:50;;;;;;;7.20;1.90;;;16.40;99.90;;;;;;4992257;28;20109;-67
2022/05/24 09:34:19;;;;;;;5.85;2.10;;;16.40;99.90;;;;;;4989624;28;20104;-66
2022/05/24 09:37:06;;;;;;;8.60;2.22;;;16.40;99.90;;;;;;4992058;28;20031;-66
2022/05/24 09:39:38;;;;;;;6.25;1.90;;;16.40;99.90;;;;;;4992007;28;20090;-67
2022/05/24 09:42:04;;;;;;;6.70;2.22;;;16.50;99.90;;;;;;4992209;28;20480;-67
2022/05/24 09:44:51;;;;;;;5.07;1.58;;;16.40;99.90;;;;;;4992012;28;20038;-66
2022/05/24 09:47:29;;;;;;;6.45;1.95;;;16.40;99.90;;;;;;4991874;28;20041;-66
2022/05/24 09:50:17;;;;;;;5.30;2.22;;;16.40;99.90;;;;;;4991918;28;20691;-66
2022/05/24 09:53:06;;;;;;;4.50;1.20;;;16.40;99.90;;;;;;4991923;28;20030;-66
2022/05/24 09:55:49;;;;;;;6.78;1.50;;;16.40;99.90;;;;;;4991882;28;20026;-66
2022/05/24 09:59:10;;;;;;;4.53;1.40;;;16.50;99.90;;;;;;4990701;28;20034;-66
2022/05/24 10:01:43;;;;;;;4.30;1.42;;;16.60;99.90;;;;;;4964407;28;20045;-66
2022/05/24 10:04:36;;;;;;;3.50;1.05;;;16.70;99.90;;;;;;4991921;28;20423;-66
2022/05/24 10:07:20;;;;;;;4.43;1.35;;;16.70;99.90;;;;;;4991584;28;20034;-67
2022/05/24 10:09:52;;;;;;;5.07;1.95;;;16.70;99.90;;;;;;4991736;28;20073;-66
2022/05/24 10:12:47;;;;;;;3.83;0.98;;;16.70;99.90;;;;;;4991888;28;20464;-66
2022/05/24 10:15:41;;;;;;;3.25;1.20;;;16.70;99.90;;;;;;4991608;28;20038;-66
2022/05/24 10:18:08;;;;;;;2.47;1.10;;;16.80;99.90;;;;;;4991600;28;20475;-67
2022/05/24 10:20:52;;;;;;;3.72;1.27;;;16.80;99.90;;;;;;4991605;28;20027;-65
2022/05/24 10:24:03;;;;;;;3.45;1.10;;;16.90;99.90;;;;;;4991751;28;20550;-67
2022/05/24 10:26:44;;;;;;;2.33;0.90;;;16.90;99.90;;;;;;4989428;28;20057;-67
2022/05/24 10:29:35;;;;;;;4.90;1.10;;;16.90;99.50;;;;;;4991675;28;20022;-66
2022/05/24 10:32:07;;;;;;;2.80;1.10;;;16.90;98.70;;;;;;4991390;28;20022;-67
2022/05/24 10:38:29;;;;;;;4.82;1.48;;;16.90;99.70;;;;;;4991399;28;20092;-66
2022/05/24 10:41:46;;;;;;;2.90;1.52;;;17.00;99.90;;;;;;4950477;29;20476;-66
2022/05/24 10:44:28;;;;;;;11.90;2.00;;;17.00;99.60;;;;;;4913067;29;20037;-66
2022/05/24 10:47:06;;;;;;;5.18;1.60;;;17.10;98.50;;;;;;4998049;23;20053;-66
2022/05/24 10:49:47;;;;;;;3.55;1.35;;;17.10;97.80;;;;;;5034402;28;20017;-66
2022/05/24 10:52:38;;;;;;;3.92;1.65;;;17.20;97.30;;;;;;5034401;28;20029;-66
2022/05/24 10:55:24;;;;;;;4.07;1.20;;;17.20;96.70;;;;;;5034194;28;20326;-66
2022/05/24 10:58:23;;;;;;;4.90;1.20;;;17.30;97.60;;;;;;5034014;28;20473;-66
2022/05/24 11:00:53;;;;;;;;;;;17.30;96.40;;;;;;5025405;28;20486;-66
2022/05/24 11:03:25;;;;;;;3.58;1.00;;;17.40;95.50;;;;;;5034331;28;19908;-66
2022/05/24 11:06:03;;;;;;;3.33;1.33;;;17.50;95.80;;;;;;5034045;28;20116;-67
2022/05/24 11:08:47;;;;;;;2.92;1.15;;;17.50;95.60;;;;;;5032677;28;20121;-66
2022/05/24 11:11:45;;;;;;;2.33;0.85;;;17.50;95.60;;;;;;5033840;28;20485;-66
2022/05/24 11:14:11;;;;;;;6.53;2.83;;;17.40;94.80;;;;;;5034009;28;20025;-66
2022/05/24 11:16:49;;;;;;;4.25;1.67;;;17.40;95.10;;;;;;5033452;28;20029;-66
2022/05/24 11:19:22;;;;;;;3.60;1.10;;;17.40;95.50;;;;;;5033978;28;20032;-66
2022/05/24 11:21:57;;;;;;;3.85;0.90;;;17.50;94.30;;;;;;5033666;28;20113;-66
2022/05/24 11:25:03;;;;;;;3.80;0.90;;;17.50;95.10;;;;;;5033526;28;20040;-66
2022/05/24 11:27:37;;;;;;;2.42;1.20;;;17.60;94.90;;;;;;5022250;28;20050;-67
2022/05/24 11:30:09;;;;;;;3.58;1.15;;;17.60;94.50;;;;;;5033392;28;20466;-67
2022/05/24 11:32:51;;;;;;;3.80;1.10;;;17.70;94.70;;;;;;5033653;28;20117;-67
2022/05/24 11:35:19;;;;;;;5.72;1.30;;;17.80;94.50;;;;;;5033305;28;20033;-67
2022/05/24 11:37:52;;;;;;;2.78;1.20;;;17.90;95.30;;;;;;5033149;28;20395;-67
2022/05/24 11:40:34;;;;;;;3.63;1.27;;;18.00;94.40;;;;;;5032955;28;20466;-67
2022/05/24 11:43:09;;;;;;;4.47;1.30;;;18.00;94.50;;;;;;5033284;28;20433;-67
2022/05/24 11:45:53;;;;;;;2.70;1.00;;;18.10;94.80;;;;;;5033488;28;20029;-67
2022/05/24 11:48:20;;;;;;;5.25;1.70;;;18.10;94.50;;;;;;5033151;28;20486;-66
2022/05/24 11:50:50;;;;;;;4.07;1.20;;;18.20;94.50;;;;;;5032873;28;20041;-66
2022/05/24 11:53:34;;;;;;;3.85;1.20;;;18.20;94.80;;;;;;5033089;28;20113;-66
2022/05/24 11:56:01;;;;;;;4.70;1.30;;;18.20;94.40;;;;;;5032157;28;20425;-67
2022/05/24 11:58:30;;;;;;;2.65;1.13;;;18.20;94.30;;;;;;5033007;28;20133;-66
2022/05/24 12:01:11;;;;;;;;;;;18.20;94.30;;;;;;5033182;28;20512;-66
2022/05/24 12:09:16;;;;;;;7.70;1.58;;;17.80;94.60;;;;;;5032781;28;20022;-67
2022/05/24 12:11:43;;;;;;;3.95;1.15;;;17.80;95.50;;;;;;5031335;28;20536;-67
2022/05/24 12:14:29;;;;;;;1.88;1.00;;;17.80;95.60;;;;;;5032689;28;20025;-66
2022/05/24 12:16:55;;;;;;;4.25;1.67;;;17.80;95.80;;;;;;5032210;28;20401;-67
2022/05/24 12:19:45;;;;;;;5.50;1.55;;;18.00;95.50;;;;;;5032306;28;20051;-66
2022/05/24 12:22:12;;;;;;;2.95;1.40;;;18.10;94.70;;;;;;5032325;28;20345;-66
2022/05/24 12:24:41;;;;;;;2.72;1.20;;;18.20;94.70;;;;;;5032570;28;20118;-66
2022/05/24 12:27:22;;;;;;;3.70;1.33;;;18.30;94.50;;;;;;5032449;28;20025;-66
2022/05/24 12:29:59;;;;;;;3.13;1.10;;;18.50;94.60;;;;;;5032280;28;20036;-67
2022/05/24 12:32:30;;;;;;;4.10;1.45;;;18.60;94.40;;;;;;5032422;28;20037;-66
2022/05/24 12:35:07;;;;;;;4.65;1.20;;;18.80;93.50;;;;;;5032557;28;20022;-66
2022/05/24 12:37:35;;;;;;;4.47;1.52;;;18.80;93.70;;;;;;5030851;28;20265;-66
2022/05/24 12:40:21;;;;;;;2.63;1.10;;;18.90;93.00;;;;;;5032018;28;20112;-66
2022/05/24 12:42:52;;;;;;;1.52;0.88;;;18.90;92.30;;;;;;5032155;28;20026;-66
2022/05/24 12:45:40;;;;;;;3.45;1.10;;;18.90;92.90;;;;;;5032265;28;20033;-66
2022/05/24 12:48:35;;;;;;;4.72;1.05;;;18.80;92.60;;;;;;5032008;28;20065;-66
2022/05/24 12:51:05;;;;;;;3.25;1.20;;;18.80;92.30;;;;;;5030787;28;20406;-66
2022/05/24 12:53:31;;;;;;;3.70;1.10;;;18.80;92.60;;;;;;5032062;28;20124;-66
2022/05/24 12:56:05;;;;;;;2.05;0.75;;;18.80;91.50;;;;;;5031945;28;20033;-66
2022/05/24 12:58:35;;;;;;;1.80;0.65;;;18.80;90.40;;;;;;5031754;28;20029;-66
2022/05/24 13:01:28;;;;;;;2.50;0.90;;;18.80;89.80;;;;;;5031779;28;20100;-66
2022/05/24 13:04:19;;;;;;;2.90;1.20;;;18.70;89.20;;;;;;5031941;28;20087;-66
2022/05/24 13:07:42;;;;;;;2.70;0.80;;;18.70;90.10;;;;;;5030052;28;20116;-66
2022/05/24 13:10:11;;;;;;;2.13;1.05;;;18.60;90.60;;;;;;5030004;28;20040;-66
2022/05/24 13:12:37;;;;;;;3.85;1.10;;;18.60;91.20;;;;;;5031846;28;20040;-66
2022/05/24 13:15:08;;;;;;;2.90;0.70;;;18.60;91.30;;;;;;5031819;28;20492;-66
2022/05/24 13:17:43;;;;;;;2.90;0.80;;;18.60;91.00;;;;;;5031311;28;20479;-66
2022/05/24 13:20:19;;;;;;;3.83;0.90;;;18.60;91.00;;;;;;5031287;28;20051;-66
2022/05/24 13:22:53;;;;;;;4.70;1.40;;;18.40;91.00;;;;;;5031326;28;20044;-66
2022/05/24 13:25:43;;;;;;;2.08;1.13;;;18.40;91.20;;;;;;5031349;28;20112;-66
2022/05/24 13:28:09;;;;;;;3.45;1.10;;;18.30;91.00;;;;;;5031247;28;20083;-66
2022/05/24 13:33:46;;;;;;;4.32;1.00;;;18.20;91.00;;;;;;5031437;28;20037;-66
2022/05/24 13:36:20;;;;;;;5.85;1.50;;;18.10;91.80;;;;;;5031259;28;20167;-66
2022/05/24 13:39:07;;;;;;;4.25;1.10;;;17.80;97.10;;;;;;5031265;28;20059;-66
2022/05/24 13:41:37;;;;;;;5.28;1.73;;;17.30;99.80;;;;;;5031068;28;20029;-66
2022/05/24 13:44:28;;;;;;;3.70;1.20;;;16.90;99.90;;;;;;5031061;28;20037;-66
2022/05/24 13:47:01;;;;;;;2.97;1.20;;;16.40;99.90;;;;;;5023695;28;20121;-67
2022/05/24 13:49:30;;;;;;;2.63;1.00;;;16.20;99.90;;;;;;5031011;28;20048;-66
2022/05/24 13:52:19;;;;;;;2.17;0.80;;;16.00;99.90;;;;;;5031027;28;20090;-66
2022/05/24 13:54:47;;;;;;;3.95;1.38;;;16.00;99.90;;;;;;5030973;28;20052;-66
2022/05/24 13:57:31;;;;;;;4.18;1.33;;;16.30;99.90;;;;;;5030816;28;20143;-67
2022/05/24 14:00:32;;;;;;;2.90;1.20;;;16.60;99.90;;;;;;5030580;28;20080;-66
2022/05/24 14:03:23;;;;;;;1.95;1.10;;;17.00;99.90;;;;;;5025111;28;20474;-66
2022/05/24 14:06:11;;;;;;;2.38;0.80;;;17.30;99.90;;;;;;5030863;28;20437;-67
2022/05/24 14:08:39;;;;;;;4.60;1.50;;;17.60;99.90;;;;;;5030617;28;20029;-67
2022/05/24 14:11:12;;;;;;;4.57;1.55;;;17.90;99.90;;;;;;5030938;28;20125;-67
2022/05/24 14:13:43;;;;;;;3.63;1.60;;;18.20;99.90;;;;;;5030826;28;20510;-66
2022/05/24 14:16:11;;;;;;;5.25;2.08;;;18.40;99.90;;;;;;5030999;28;20029;-66
2022/05/24 14:18:38;;;;;;;5.40;1.83;;;18.50;99.90;;;;;;5030727;28;20121;-66
2022/05/24 14:21:04;;;;;;;4.65;1.60;;;18.50;98.70;;;;;;5034285;28;20087;-66
2022/05/24 14:23:30;;;;;;;4.13;1.40;;;18.40;99.30;;;;;;5034817;28;20030;-66
2022/05/24 14:25:56;;;;;;;5.25;1.70;;;18.20;99.60;;;;;;5034718;28;20103;-66
2022/05/24 14:28:22;;;;;;;6.28;1.48;;;18.20;99.00;;;;;;5035048;28;20613;-66
2022/05/24 14:30:49;;;;;;;4.93;1.02;;;18.20;99.20;;;;;;5034607;28;20124;-66
2022/05/24 14:33:19;;;;;;;6.00;1.42;;;18.10;99.00;;;;;;5034741;28;20109;-66
2022/05/24 14:35:45;;;;;;;3.70;1.23;;;18.10;99.60;;;;;;5034400;28;20021;-66
2022/05/24 14:38:13;;;;;;;5.53;1.52;;;18.10;98.60;;;;;;5034640;28;20036;-66
2022/05/24 14:40:39;;;;;;;4.85;1.70;;;18.20;99.10;;;;;;5033166;28;20021;-66
2022/05/24 14:43:17;;;;;;;7.70;1.83;;;18.30;98.60;;;;;;5034630;28;20029;-66
2022/05/24 14:45:43;;;;;;;3.22;1.75;;;18.40;98.90;;;;;;5034372;28;20385;-66
2022/05/24 14:48:09;;;;;;;5.03;2.20;;;18.40;98.70;;;;;;5034357;28;20037;-66
2022/05/24 14:50:37;;;;;;;4.18;1.80;;;18.40;98.60;;;;;;5034203;28;20120;-67
2022/05/24 14:53:05;;;;;;;4.28;1.35;;;18.30;99.00;;;;;;5034315;28;20196;-67
2022/05/24 14:55:31;;;;;;;2.63;1.10;;;18.30;97.90;;;;;;5034240;28;20111;-67